Proserpine Hamilton Isla, Australia

1:36 AM AEST on January 19, 2017 (GMT +1000)
Hamilton Island | | Change Station

Elev 56 ft 20.35 °S, 148.95 °E | Updated 36 minutes ago

Clear
Clear
81 °F
Feels Like 85 °F
N
12
Wind Variable Wind from East

Today
High -- | Low -- °F
--% Chance of Precip.
Yesterday
High -- | Low -- °F
Precip. -- in
Pressure 29.86 in
Visibility 6.2 miles
Clouds
Heat Index 85 °F
Dew Point 73 °F
Humidity 79%
Rainfall 0.00 in
Snow Depth Not available.
5:39 AM 6:50 PM
Waning Gibbous, 62% visible
METAR YBHM 181500Z AUTO 09010KT 9999 // NCD 27/23 Q1011
Pressure 29.86 in
Visibility 6.2 miles
Clouds
Heat Index 85 °F
Dew Point 73 °F
Humidity 79%
Rainfall 0.00 in
Snow Depth Not available.
5:39 AM 6:50 PM
Waning Gibbous, 62% visible
METAR YBHM 181500Z AUTO 09010KT 9999 // NCD 27/23 Q1011

Get Your Daily Forecast Email!

Thanks for signing up!

Be on the lookout for a verification email in your inbox.

You'll start receiving the daily forecast at 8 AM.

×

10-Day Weather Forecast

×

Almanac

Astronomy

Jan. 19, 2017 Rise Set
Actual Time
Civil Twilight
Nautical Twilight
Astronomical Twilight
Moon
Length of Visible Light
Length of Day
Tomorrow will be .
, % of the Moon is Illuminated

Today's Extremes

Country Highs Country Lows

Community

WunderPhotos

Upload Photos

1,962,540 photos uploaded!

WunderBlog® & News

Nearby

Air Quality

  Air Quality AQ Index Pollutant
Not available.

Snow Depth

Station Depth Elevation

Earthquake Activity

City Distance Mag. Time & Date
Minimum magnitude displayed is 2.5.

Coastal Water Temperatures

Place Temperature

Stations

Nearby Weather Stations

Station Location Temp. Windchill Dew Point Humidity Wind Precip. Elev Updated Type